sensor_id;sensor_type;location;lat;lon;timestamp;temperature;humidity
67502;SHT30;54349;52.528;19.760;2023-04-16T00:00:19;23.83;47.81
67502;SHT30;54349;52.528;19.760;2023-04-16T00:03:11;23.83;47.71
67502;SHT30;54349;52.528;19.760;2023-04-16T00:05:40;23.85;47.64
67502;SHT30;54349;52.528;19.760;2023-04-16T00:08:11;23.86;47.63
67502;SHT30;54349;52.528;19.760;2023-04-16T00:10:42;23.88;47.52
67502;SHT30;54349;52.528;19.760;2023-04-16T00:13:14;23.88;47.34
67502;SHT30;54349;52.528;19.760;2023-04-16T00:15:46;23.87;47.19
67502;SHT30;54349;52.528;19.760;2023-04-16T00:18:19;23.85;47.03
67502;SHT30;54349;52.528;19.760;2023-04-16T00:20:50;23.83;46.91
67502;SHT30;54349;52.528;19.760;2023-04-16T00:23:19;23.82;46.85
67502;SHT30;54349;52.528;19.760;2023-04-16T00:25:49;23.80;46.74
67502;SHT30;54349;52.528;19.760;2023-04-16T00:28:19;23.78;46.65
67502;SHT30;54349;52.528;19.760;2023-04-16T00:30:48;23.76;46.54
67502;SHT30;54349;52.528;19.760;2023-04-16T00:33:18;23.74;46.44
67502;SHT30;54349;52.528;19.760;2023-04-16T00:35:46;23.73;46.38
67502;SHT30;54349;52.528;19.760;2023-04-16T00:38:18;23.70;46.30
67502;SHT30;54349;52.528;19.760;2023-04-16T00:40:46;23.68;46.25
67502;SHT30;54349;52.528;19.760;2023-04-16T00:43:22;23.67;46.19
67502;SHT30;54349;52.528;19.760;2023-04-16T00:45:55;23.65;46.12
67502;SHT30;54349;52.528;19.760;2023-04-16T00:48:26;23.63;46.06
67502;SHT30;54349;52.528;19.760;2023-04-16T00:50:58;23.61;46.00
67502;SHT30;54349;52.528;19.760;2023-04-16T00:53:29;23.59;45.95
67502;SHT30;54349;52.528;19.760;2023-04-16T00:56:01;23.58;45.90
67502;SHT30;54349;52.528;19.760;2023-04-16T00:58:33;23.55;45.84
67502;SHT30;54349;52.528;19.760;2023-04-16T01:01:04;23.53;45.80
67502;SHT30;54349;52.528;19.760;2023-04-16T01:03:39;23.51;45.75
67502;SHT30;54349;52.528;19.760;2023-04-16T01:06:15;23.50;45.71
67502;SHT30;54349;52.528;19.760;2023-04-16T01:08:46;23.48;45.67
67502;SHT30;54349;52.528;19.760;2023-04-16T01:11:19;23.46;45.61
67502;SHT30;54349;52.528;19.760;2023-04-16T01:13:47;23.44;45.60
67502;SHT30;54349;52.528;19.760;2023-04-16T01:16:17;23.43;45.59
67502;SHT30;54349;52.528;19.760;2023-04-16T01:18:48;23.40;45.50
67502;SHT30;54349;52.528;19.760;2023-04-16T01:21:20;23.39;45.49
67502;SHT30;54349;52.528;19.760;2023-04-16T01:23:48;23.37;45.47
67502;SHT30;54349;52.528;19.760;2023-04-16T01:26:19;23.35;45.43
67502;SHT30;54349;52.528;19.760;2023-04-16T01:28:49;23.34;45.41
67502;SHT30;54349;52.528;19.760;2023-04-16T01:31:19;23.32;45.39
67502;SHT30;54349;52.528;19.760;2023-04-16T01:34:04;23.30;45.34
67502;SHT30;54349;52.528;19.760;2023-04-16T01:36:36;23.27;45.30
67502;SHT30;54349;52.528;19.760;2023-04-16T01:39:05;23.26;45.30
67502;SHT30;54349;52.528;19.760;2023-04-16T01:41:38;23.25;45.28
67502;SHT30;54349;52.528;19.760;2023-04-16T01:44:07;23.23;45.23
67502;SHT30;54349;52.528;19.760;2023-04-16T01:46:37;23.22;45.19
67502;SHT30;54349;52.528;19.760;2023-04-16T01:49:07;23.20;45.17
67502;SHT30;54349;52.528;19.760;2023-04-16T01:51:36;23.19;45.15
67502;SHT30;54349;52.528;19.760;2023-04-16T01:54:06;23.18;45.12
67502;SHT30;54349;52.528;19.760;2023-04-16T01:56:36;23.15;45.10
67502;SHT30;54349;52.528;19.760;2023-04-16T01:59:06;23.13;45.09
67502;SHT30;54349;52.528;19.760;2023-04-16T02:01:39;23.12;45.03
67502;SHT30;54349;52.528;19.760;2023-04-16T02:04:09;23.11;45.01
67502;SHT30;54349;52.528;19.760;2023-04-16T02:06:40;23.10;45.00
67502;SHT30;54349;52.528;19.760;2023-04-16T02:09:08;23.08;45.00
67502;SHT30;54349;52.528;19.760;2023-04-16T02:11:40;23.07;44.96
67502;SHT30;54349;52.528;19.760;2023-04-16T02:14:09;23.05;44.98
67502;SHT30;54349;52.528;19.760;2023-04-16T02:16:40;23.04;44.93
67502;SHT30;54349;52.528;19.760;2023-04-16T02:19:34;23.02;44.90
67502;SHT30;54349;52.528;19.760;2023-04-16T02:22:08;23.02;44.88
67502;SHT30;54349;52.528;19.760;2023-04-16T02:24:39;23.01;44.86
67502;SHT30;54349;52.528;19.760;2023-04-16T02:27:09;22.99;44.82
67502;SHT30;54349;52.528;19.760;2023-04-16T02:29:39;22.97;44.81
67502;SHT30;54349;52.528;19.760;2023-04-16T02:32:13;22.96;44.80
67502;SHT30;54349;52.528;19.760;2023-04-16T02:34:45;22.94;44.80
67502;SHT30;54349;52.528;19.760;2023-04-16T02:37:14;22.94;44.78
67502;SHT30;54349;52.528;19.760;2023-04-16T02:39:42;22.93;44.78
67502;SHT30;54349;52.528;19.760;2023-04-16T02:42:15;22.91;44.73
67502;SHT30;54349;52.528;19.760;2023-04-16T02:44:45;22.90;44.74
67502;SHT30;54349;52.528;19.760;2023-04-16T02:47:14;22.88;44.71
67502;SHT30;54349;52.528;19.760;2023-04-16T02:49:50;22.88;44.69
67502;SHT30;54349;52.528;19.760;2023-04-16T02:52:20;22.86;44.69
67502;SHT30;54349;52.528;19.760;2023-04-16T02:54:51;22.85;44.67
67502;SHT30;54349;52.528;19.760;2023-04-16T02:57:20;22.85;44.67
67502;SHT30;54349;52.528;19.760;2023-04-16T02:59:50;22.83;44.61
67502;SHT30;54349;52.528;19.760;2023-04-16T03:02:19;22.82;44.58
67502;SHT30;54349;52.528;19.760;2023-04-16T03:04:54;22.81;44.56
67502;SHT30;54349;52.528;19.760;2023-04-16T03:07:23;22.79;44.51
67502;SHT30;54349;52.528;19.760;2023-04-16T03:09:52;22.77;44.47
67502;SHT30;54349;52.528;19.760;2023-04-16T03:12:20;22.76;44.46
67502;SHT30;54349;52.528;19.760;2023-04-16T03:15:07;22.75;44.43
67502;SHT30;54349;52.528;19.760;2023-04-16T03:17:39;22.73;44.40
67502;SHT30;54349;52.528;19.760;2023-04-16T03:20:09;22.72;44.42
67502;SHT30;54349;52.528;19.760;2023-04-16T03:22:39;22.70;44.42
67502;SHT30;54349;52.528;19.760;2023-04-16T03:25:07;22.69;44.40
67502;SHT30;54349;52.528;19.760;2023-04-16T03:27:36;22.68;44.40
67502;SHT30;54349;52.528;19.760;2023-04-16T03:30:11;22.68;44.39
67502;SHT30;54349;52.528;19.760;2023-04-16T03:32:42;22.66;44.35
67502;SHT30;54349;52.528;19.760;2023-04-16T03:35:11;22.65;44.37
67502;SHT30;54349;52.528;19.760;2023-04-16T03:37:40;22.64;44.33
67502;SHT30;54349;52.528;19.760;2023-04-16T03:40:09;22.63;44.32
67502;SHT30;54349;52.528;19.760;2023-04-16T03:42:38;22.63;44.31
67502;SHT30;54349;52.528;19.760;2023-04-16T03:45:06;22.62;44.30
67502;SHT30;54349;52.528;19.760;2023-04-16T03:47:36;22.60;44.30
67502;SHT30;54349;52.528;19.760;2023-04-16T03:50:05;22.60;44.30
67502;SHT30;54349;52.528;19.760;2023-04-16T03:52:35;22.59;44.28
67502;SHT30;54349;52.528;19.760;2023-04-16T03:55:04;22.58;44.28
67502;SHT30;54349;52.528;19.760;2023-04-16T03:57:36;22.57;44.22
67502;SHT30;54349;52.528;19.760;2023-04-16T04:00:08;22.56;44.21
67502;SHT30;54349;52.528;19.760;2023-04-16T04:03:00;22.55;44.21
67502;SHT30;54349;52.528;19.760;2023-04-16T04:05:34;22.53;44.19
67502;SHT30;54349;52.528;19.760;2023-04-16T04:08:09;22.53;44.19
67502;SHT30;54349;52.528;19.760;2023-04-16T04:10:41;22.52;44.20
67502;SHT30;54349;52.528;19.760;2023-04-16T04:13:10;22.51;44.20
67502;SHT30;54349;52.528;19.760;2023-04-16T04:15:39;22.50;44.19
67502;SHT30;54349;52.528;19.760;2023-04-16T04:18:08;22.50;44.18
67502;SHT30;54349;52.528;19.760;2023-04-16T04:20:39;22.49;44.20
67502;SHT30;54349;52.528;19.760;2023-04-16T04:23:09;22.48;44.15
67502;SHT30;54349;52.528;19.760;2023-04-16T04:25:38;22.47;44.12
67502;SHT30;54349;52.528;19.760;2023-04-16T04:28:07;22.46;44.11
67502;SHT30;54349;52.528;19.760;2023-04-16T04:30:35;22.45;44.14
67502;SHT30;54349;52.528;19.760;2023-04-16T04:33:05;22.44;44.12
67502;SHT30;54349;52.528;19.760;2023-04-16T04:35:35;22.44;44.10
67502;SHT30;54349;52.528;19.760;2023-04-16T04:38:04;22.42;44.10
67502;SHT30;54349;52.528;19.760;2023-04-16T04:40:33;22.42;44.11
67502;SHT30;54349;52.528;19.760;2023-04-16T04:43:03;22.41;44.10
67502;SHT30;54349;52.528;19.760;2023-04-16T04:45:32;22.41;44.10
67502;SHT30;54349;52.528;19.760;2023-04-16T04:48:01;22.39;44.10
67502;SHT30;54349;52.528;19.760;2023-04-16T04:50:30;22.39;44.09
67502;SHT30;54349;52.528;19.760;2023-04-16T04:52:59;22.38;44.08
67502;SHT30;54349;52.528;19.760;2023-04-16T04:55:28;22.38;44.04
67502;SHT30;54349;52.528;19.760;2023-04-16T04:57:58;22.36;44.01
67502;SHT30;54349;52.528;19.760;2023-04-16T05:00:27;22.36;44.03
67502;SHT30;54349;52.528;19.760;2023-04-16T05:02:57;22.35;44.04
67502;SHT30;54349;52.528;19.760;2023-04-16T05:05:30;22.34;44.02
67502;SHT30;54349;52.528;19.760;2023-04-16T05:08:00;22.33;44.00
67502;SHT30;54349;52.528;19.760;2023-04-16T05:10:30;22.33;44.00
67502;SHT30;54349;52.528;19.760;2023-04-16T05:12:59;22.33;43.99
67502;SHT30;54349;52.528;19.760;2023-04-16T05:15:29;22.32;44.00
67502;SHT30;54349;52.528;19.760;2023-04-16T05:17:59;22.32;44.00
67502;SHT30;54349;52.528;19.760;2023-04-16T05:20:28;22.30;44.00
67502;SHT30;54349;52.528;19.760;2023-04-16T05:22:56;22.29;44.00
67502;SHT30;54349;52.528;19.760;2023-04-16T05:25:24;22.28;44.00
67502;SHT30;54349;52.528;19.760;2023-04-16T05:27:52;22.29;43.96
67502;SHT30;54349;52.528;19.760;2023-04-16T05:30:20;22.27;43.97
67502;SHT30;54349;52.528;19.760;2023-04-16T05:32:48;22.27;43.98
67502;SHT30;54349;52.528;19.760;2023-04-16T05:35:16;22.26;43.97
67502;SHT30;54349;52.528;19.760;2023-04-16T05:37:44;22.26;43.98
67502;SHT30;54349;52.528;19.760;2023-04-16T05:40:13;22.25;43.96
67502;SHT30;54349;52.528;19.760;2023-04-16T05:42:41;22.25;44.00
67502;SHT30;54349;52.528;19.760;2023-04-16T05:45:09;22.24;43.99
67502;SHT30;54349;52.528;19.760;2023-04-16T05:47:38;22.23;43.97
67502;SHT30;54349;52.528;19.760;2023-04-16T05:50:06;22.23;43.94
67502;SHT30;54349;52.528;19.760;2023-04-16T05:52:35;22.23;43.96
67502;SHT30;54349;52.528;19.760;2023-04-16T05:55:05;22.22;43.93
67502;SHT30;54349;52.528;19.760;2023-04-16T05:57:33;22.21;43.92
67502;SHT30;54349;52.528;19.760;2023-04-16T06:00:02;22.21;43.90
67502;SHT30;54349;52.528;19.760;2023-04-16T06:02:39;22.20;43.95
67502;SHT30;54349;52.528;19.760;2023-04-16T06:05:07;22.20;43.94
67502;SHT30;54349;52.528;19.760;2023-04-16T06:07:35;22.20;43.92
67502;SHT30;54349;52.528;19.760;2023-04-16T06:10:04;22.20;43.91
67502;SHT30;54349;52.528;19.760;2023-04-16T06:12:33;22.18;43.90
67502;SHT30;54349;52.528;19.760;2023-04-16T06:15:02;22.19;43.91
67502;SHT30;54349;52.528;19.760;2023-04-16T06:17:32;22.19;43.90
67502;SHT30;54349;52.528;19.760;2023-04-16T06:20:01;22.18;43.90
67502;SHT30;54349;52.528;19.760;2023-04-16T06:22:29;22.18;43.90
67502;SHT30;54349;52.528;19.760;2023-04-16T06:24:58;22.18;43.90
67502;SHT30;54349;52.528;19.760;2023-04-16T06:27:27;22.18;43.90
67502;SHT30;54349;52.528;19.760;2023-04-16T06:29:55;22.17;43.89
67502;SHT30;54349;52.528;19.760;2023-04-16T06:32:24;22.16;43.87
67502;SHT30;54349;52.528;19.760;2023-04-16T06:34:53;22.16;43.86
67502;SHT30;54349;52.528;19.760;2023-04-16T06:37:23;22.15;43.89
67502;SHT30;54349;52.528;19.760;2023-04-16T06:39:51;22.16;43.87
67502;SHT30;54349;52.528;19.760;2023-04-16T06:42:19;22.15;43.89
67502;SHT30;54349;52.528;19.760;2023-04-16T06:44:48;22.15;43.83
67502;SHT30;54349;52.528;19.760;2023-04-16T06:47:16;22.15;43.84
67502;SHT30;54349;52.528;19.760;2023-04-16T06:49:45;22.15;43.83
67502;SHT30;54349;52.528;19.760;2023-04-16T06:52:14;22.15;43.83
67502;SHT30;54349;52.528;19.760;2023-04-16T06:54:43;22.15;43.83
67502;SHT30;54349;52.528;19.760;2023-04-16T06:57:11;22.15;43.81
67502;SHT30;54349;52.528;19.760;2023-04-16T06:59:39;22.15;43.84
67502;SHT30;54349;52.528;19.760;2023-04-16T07:02:08;22.15;43.84
67502;SHT30;54349;52.528;19.760;2023-04-16T07:04:37;22.16;43.89
67502;SHT30;54349;52.528;19.760;2023-04-16T07:07:07;22.16;43.80
67502;SHT30;54349;52.528;19.760;2023-04-16T07:09:35;22.16;43.79
67502;SHT30;54349;52.528;19.760;2023-04-16T07:12:05;22.16;43.80
67502;SHT30;54349;52.528;19.760;2023-04-16T07:14:34;22.16;43.80
67502;SHT30;54349;52.528;19.760;2023-04-16T07:17:02;22.17;43.80
67502;SHT30;54349;52.528;19.760;2023-04-16T07:19:31;22.17;43.77
67502;SHT30;54349;52.528;19.760;2023-04-16T07:21:59;22.17;43.76
67502;SHT30;54349;52.528;19.760;2023-04-16T07:24:28;22.17;43.73
67502;SHT30;54349;52.528;19.760;2023-04-16T07:26:57;22.18;43.77
67502;SHT30;54349;52.528;19.760;2023-04-16T07:29:25;22.18;43.72
67502;SHT30;54349;52.528;19.760;2023-04-16T07:31:54;22.18;43.70
67502;SHT30;54349;52.528;19.760;2023-04-16T07:34:22;22.18;43.73
67502;SHT30;54349;52.528;19.760;2023-04-16T07:36:51;22.18;43.69
67502;SHT30;54349;52.528;19.760;2023-04-16T07:39:19;22.19;43.69
67502;SHT30;54349;52.528;19.760;2023-04-16T07:41:48;22.19;43.70
67502;SHT30;54349;52.528;19.760;2023-04-16T07:44:17;22.18;43.69
67502;SHT30;54349;52.528;19.760;2023-04-16T07:46:45;22.18;43.65
67502;SHT30;54349;52.528;19.760;2023-04-16T07:49:14;22.18;43.65
67502;SHT30;54349;52.528;19.760;2023-04-16T07:51:43;22.18;43.62
67502;SHT30;54349;52.528;19.760;2023-04-16T07:54:11;22.19;43.61
67502;SHT30;54349;52.528;19.760;2023-04-16T07:56:39;22.19;43.60
67502;SHT30;54349;52.528;19.760;2023-04-16T07:59:07;22.19;43.60
67502;SHT30;54349;52.528;19.760;2023-04-16T08:01:51;22.19;43.60
67502;SHT30;54349;52.528;19.760;2023-04-16T08:04:21;22.19;43.60
67502;SHT30;54349;52.528;19.760;2023-04-16T08:06:54;22.19;43.60
67502;SHT30;54349;52.528;19.760;2023-04-16T08:09:25;22.20;43.58
67502;SHT30;54349;52.528;19.760;2023-04-16T08:11:58;22.20;43.54
67502;SHT30;54349;52.528;19.760;2023-04-16T08:14:29;22.20;43.53
67502;SHT30;54349;52.528;19.760;2023-04-16T08:16:59;22.21;43.51
67502;SHT30;54349;52.528;19.760;2023-04-16T08:19:28;22.21;43.51
67502;SHT30;54349;52.528;19.760;2023-04-16T08:21:56;22.22;43.51
67502;SHT30;54349;52.528;19.760;2023-04-16T08:24:25;22.20;43.50
67502;SHT30;54349;52.528;19.760;2023-04-16T08:26:55;22.22;43.41
67502;SHT30;54349;52.528;19.760;2023-04-16T08:29:45;22.21;43.36
67502;SHT30;54349;52.528;19.760;2023-04-16T08:32:17;22.20;43.36
67502;SHT30;54349;52.528;19.760;2023-04-16T08:34:48;22.20;43.28
67502;SHT30;54349;52.528;19.760;2023-04-16T08:37:18;22.20;43.24
67502;SHT30;54349;52.528;19.760;2023-04-16T08:39:47;22.19;43.29
67502;SHT30;54349;52.528;19.760;2023-04-16T08:42:32;22.20;43.19
67502;SHT30;54349;52.528;19.760;2023-04-16T08:45:20;22.19;43.13
67502;SHT30;54349;52.528;19.760;2023-04-16T08:47:49;22.19;43.16
67502;SHT30;54349;52.528;19.760;2023-04-16T08:50:23;22.20;43.16
67502;SHT30;54349;52.528;19.760;2023-04-16T08:52:57;22.19;43.22
67502;SHT30;54349;52.528;19.760;2023-04-16T08:55:34;22.21;43.22
67502;SHT30;54349;52.528;19.760;2023-04-16T08:58:10;22.22;43.20
67502;SHT30;54349;52.528;19.760;2023-04-16T09:00:42;22.24;43.20
67502;SHT30;54349;52.528;19.760;2023-04-16T09:03:13;22.25;43.17
67502;SHT30;54349;52.528;19.760;2023-04-16T09:05:42;22.27;43.14
67502;SHT30;54349;52.528;19.760;2023-04-16T09:08:11;22.28;43.13
67502;SHT30;54349;52.528;19.760;2023-04-16T09:10:40;22.28;43.10
67502;SHT30;54349;52.528;19.760;2023-04-16T09:13:09;22.28;43.10
67502;SHT30;54349;52.528;19.760;2023-04-16T09:15:40;22.29;43.10
67502;SHT30;54349;52.528;19.760;2023-04-16T09:18:09;22.29;43.08
67502;SHT30;54349;52.528;19.760;2023-04-16T09:20:39;22.30;43.09
67502;SHT30;54349;52.528;19.760;2023-04-16T09:23:07;22.29;43.06
67502;SHT30;54349;52.528;19.760;2023-04-16T09:25:38;22.30;43.05
67502;SHT30;54349;52.528;19.760;2023-04-16T09:28:06;22.29;43.03
67502;SHT30;54349;52.528;19.760;2023-04-16T09:30:36;22.30;43.02
67502;SHT30;54349;52.528;19.760;2023-04-16T09:33:15;22.30;43.01
67502;SHT30;54349;52.528;19.760;2023-04-16T09:35:53;22.29;43.01
67502;SHT30;54349;52.528;19.760;2023-04-16T09:38:21;22.29;43.03
67502;SHT30;54349;52.528;19.760;2023-04-16T09:41:04;22.28;43.01
67502;SHT30;54349;52.528;19.760;2023-04-16T09:43:35;22.28;43.02
67502;SHT30;54349;52.528;19.760;2023-04-16T09:46:04;22.29;43.05
67502;SHT30;54349;52.528;19.760;2023-04-16T09:48:35;22.28;43.05
67502;SHT30;54349;52.528;19.760;2023-04-16T09:51:05;22.28;43.06
67502;SHT30;54349;52.528;19.760;2023-04-16T09:53:34;22.28;43.09
67502;SHT30;54349;52.528;19.760;2023-04-16T09:56:03;22.27;43.03
67502;SHT30;54349;52.528;19.760;2023-04-16T09:58:36;22.28;43.08
67502;SHT30;54349;52.528;19.760;2023-04-16T10:01:07;22.28;43.10
67502;SHT30;54349;52.528;19.760;2023-04-16T10:03:39;22.29;43.09
67502;SHT30;54349;52.528;19.760;2023-04-16T10:06:18;22.29;43.07
67502;SHT30;54349;52.528;19.760;2023-04-16T10:08:50;22.28;43.08
67502;SHT30;54349;52.528;19.760;2023-04-16T10:11:25;22.29;43.04
67502;SHT30;54349;52.528;19.760;2023-04-16T10:13:54;22.29;43.06
67502;SHT30;54349;52.528;19.760;2023-04-16T10:16:22;22.29;42.99
67502;SHT30;54349;52.528;19.760;2023-04-16T10:18:51;22.30;43.00
67502;SHT30;54349;52.528;19.760;2023-04-16T10:21:21;22.31;43.02
67502;SHT30;54349;52.528;19.760;2023-04-16T10:23:49;22.31;43.76
67502;SHT30;54349;52.528;19.760;2023-04-16T10:26:20;22.32;45.07
67502;SHT30;54349;52.528;19.760;2023-04-16T10:28:49;22.34;45.90
67502;SHT30;54349;52.528;19.760;2023-04-16T10:31:18;22.37;46.58
67502;SHT30;54349;52.528;19.760;2023-04-16T10:33:47;22.39;47.07
67502;SHT30;54349;52.528;19.760;2023-04-16T10:36:21;22.42;47.62
67502;SHT30;54349;52.528;19.760;2023-04-16T10:38:51;22.46;47.90
67502;SHT30;54349;52.528;19.760;2023-04-16T10:41:25;22.49;47.98
67502;SHT30;54349;52.528;19.760;2023-04-16T10:44:07;22.53;48.11
67502;SHT30;54349;52.528;19.760;2023-04-16T10:46:40;22.58;48.13
67502;SHT30;54349;52.528;19.760;2023-04-16T10:49:29;22.61;48.06
67502;SHT30;54349;52.528;19.760;2023-04-16T10:52:06;22.65;48.01
67502;SHT30;54349;52.528;19.760;2023-04-16T10:54:38;22.69;48.09
67502;SHT30;54349;52.528;19.760;2023-04-16T10:57:08;22.72;48.15
67502;SHT30;54349;52.528;19.760;2023-04-16T10:59:42;22.75;48.11
67502;SHT30;54349;52.528;19.760;2023-04-16T11:02:13;22.78;48.04
67502;SHT30;54349;52.528;19.760;2023-04-16T11:04:45;22.81;48.01
67502;SHT30;54349;52.528;19.760;2023-04-16T11:07:21;22.84;48.03
67502;SHT30;54349;52.528;19.760;2023-04-16T11:10:04;22.86;48.10
67502;SHT30;54349;52.528;19.760;2023-04-16T11:17:45;22.93;47.98
67502;SHT30;54349;52.528;19.760;2023-04-16T11:20:19;22.96;47.89
67502;SHT30;54349;52.528;19.760;2023-04-16T11:22:50;22.97;47.90
67502;SHT30;54349;52.528;19.760;2023-04-16T11:25:28;23.00;47.81
67502;SHT30;54349;52.528;19.760;2023-04-16T11:27:58;23.02;47.81
67502;SHT30;54349;52.528;19.760;2023-04-16T11:30:35;23.04;47.80
67502;SHT30;54349;52.528;19.760;2023-04-16T11:33:09;23.06;47.78
67502;SHT30;54349;52.528;19.760;2023-04-16T11:35:39;23.08;47.76
67502;SHT30;54349;52.528;19.760;2023-04-16T11:38:08;23.09;47.71
67502;SHT30;54349;52.528;19.760;2023-04-16T11:40:36;23.11;47.71
67502;SHT30;54349;52.528;19.760;2023-04-16T11:43:14;23.13;47.57
67502;SHT30;54349;52.528;19.760;2023-04-16T11:48:50;23.17;47.14
67502;SHT30;54349;52.528;19.760;2023-04-16T11:51:22;23.17;47.07
67502;SHT30;54349;52.528;19.760;2023-04-16T11:53:51;23.20;47.22
67502;SHT30;54349;52.528;19.760;2023-04-16T11:56:28;23.22;47.47
67502;SHT30;54349;52.528;19.760;2023-04-16T11:59:06;23.25;47.41
67502;SHT30;54349;52.528;19.760;2023-04-16T12:01:40;23.28;47.38
67502;SHT30;54349;52.528;19.760;2023-04-16T12:04:14;23.31;47.49
67502;SHT30;54349;52.528;19.760;2023-04-16T12:09:35;23.37;47.33
67502;SHT30;54349;52.528;19.760;2023-04-16T12:12:24;23.40;47.34
67502;SHT30;54349;52.528;19.760;2023-04-16T12:14:58;23.43;47.34
67502;SHT30;54349;52.528;19.760;2023-04-16T12:17:33;23.46;47.28
67502;SHT30;54349;52.528;19.760;2023-04-16T12:20:12;23.50;47.15
67502;SHT30;54349;52.528;19.760;2023-04-16T12:22:46;23.53;47.23
67502;SHT30;54349;52.528;19.760;2023-04-16T12:25:17;23.56;47.19
67502;SHT30;54349;52.528;19.760;2023-04-16T12:27:53;23.56;46.99
67502;SHT30;54349;52.528;19.760;2023-04-16T12:30:23;23.57;46.90
67502;SHT30;54349;52.528;19.760;2023-04-16T12:33:12;23.58;46.92
67502;SHT30;54349;52.528;19.760;2023-04-16T12:35:43;23.58;46.78
67502;SHT30;54349;52.528;19.760;2023-04-16T12:38:12;23.60;46.63
67502;SHT30;54349;52.528;19.760;2023-04-16T12:40:42;23.60;46.48
67502;SHT30;54349;52.528;19.760;2023-04-16T12:43:10;23.61;46.33
67502;SHT30;54349;52.528;19.760;2023-04-16T12:45:39;23.60;46.20
67502;SHT30;54349;52.528;19.760;2023-04-16T12:48:08;23.61;46.11
67502;SHT30;54349;52.528;19.760;2023-04-16T12:50:36;23.61;46.00
67502;SHT30;54349;52.528;19.760;2023-04-16T12:53:06;23.60;45.87
67502;SHT30;54349;52.528;19.760;2023-04-16T12:55:34;23.61;45.69
67502;SHT30;54349;52.528;19.760;2023-04-16T12:58:03;23.61;45.64
67502;SHT30;54349;52.528;19.760;2023-04-16T13:00:31;23.61;45.36
67502;SHT30;54349;52.528;19.760;2023-04-16T13:02:59;23.60;45.33
67502;SHT30;54349;52.528;19.760;2023-04-16T13:05:28;23.59;45.29
67502;SHT30;54349;52.528;19.760;2023-04-16T13:07:56;23.60;45.25
67502;SHT30;54349;52.528;19.760;2023-04-16T13:10:26;23.59;45.19
67502;SHT30;54349;52.528;19.760;2023-04-16T13:12:54;23.59;45.09
67502;SHT30;54349;52.528;19.760;2023-04-16T13:15:23;23.59;45.10
67502;SHT30;54349;52.528;19.760;2023-04-16T13:17:51;23.58;45.01
67502;SHT30;54349;52.528;19.760;2023-04-16T13:20:20;23.58;44.99
67502;SHT30;54349;52.528;19.760;2023-04-16T13:22:51;23.57;44.95
67502;SHT30;54349;52.528;19.760;2023-04-16T13:25:19;23.56;44.83
67502;SHT30;54349;52.528;19.760;2023-04-16T13:27:47;23.55;44.82
67502;SHT30;54349;52.528;19.760;2023-04-16T13:30:16;23.55;44.80
67502;SHT30;54349;52.528;19.760;2023-04-16T13:32:44;23.55;44.72
67502;SHT30;54349;52.528;19.760;2023-04-16T13:35:13;23.55;44.65
67502;SHT30;54349;52.528;19.760;2023-04-16T13:37:41;23.54;44.66
67502;SHT30;54349;52.528;19.760;2023-04-16T13:40:09;23.53;44.60
67502;SHT30;54349;52.528;19.760;2023-04-16T13:42:38;23.53;44.60
67502;SHT30;54349;52.528;19.760;2023-04-16T13:45:06;23.53;44.60
67502;SHT30;54349;52.528;19.760;2023-04-16T13:47:39;23.52;44.53
67502;SHT30;54349;52.528;19.760;2023-04-16T13:50:11;23.51;44.50
67502;SHT30;54349;52.528;19.760;2023-04-16T13:52:40;23.51;44.49
67502;SHT30;54349;52.528;19.760;2023-04-16T13:55:08;23.51;44.42
67502;SHT30;54349;52.528;19.760;2023-04-16T13:57:37;23.51;44.46
67502;SHT30;54349;52.528;19.760;2023-04-16T14:00:07;23.50;44.45
67502;SHT30;54349;52.528;19.760;2023-04-16T14:02:40;23.50;44.41
67502;SHT30;54349;52.528;19.760;2023-04-16T14:05:10;23.50;44.38
67502;SHT30;54349;52.528;19.760;2023-04-16T14:07:38;23.49;44.37
67502;SHT30;54349;52.528;19.760;2023-04-16T14:10:07;23.49;44.33
67502;SHT30;54349;52.528;19.760;2023-04-16T14:12:37;23.49;44.29
67502;SHT30;54349;52.528;19.760;2023-04-16T14:15:06;23.48;44.24
67502;SHT30;54349;52.528;19.760;2023-04-16T14:17:39;23.48;44.22
67502;SHT30;54349;52.528;19.760;2023-04-16T14:20:10;23.48;44.18
67502;SHT30;54349;52.528;19.760;2023-04-16T14:22:40;23.48;44.17
67502;SHT30;54349;52.528;19.760;2023-04-16T14:25:10;23.46;44.12
67502;SHT30;54349;52.528;19.760;2023-04-16T14:27:39;23.47;44.05
67502;SHT30;54349;52.528;19.760;2023-04-16T14:30:08;23.46;44.03
67502;SHT30;54349;52.528;19.760;2023-04-16T14:32:37;23.46;44.01
67502;SHT30;54349;52.528;19.760;2023-04-16T14:35:06;23.46;44.23
67502;SHT30;54349;52.528;19.760;2023-04-16T14:37:35;23.47;44.38
67502;SHT30;54349;52.528;19.760;2023-04-16T14:40:05;23.47;44.56
67502;SHT30;54349;52.528;19.760;2023-04-16T14:42:36;23.49;44.70
67502;SHT30;54349;52.528;19.760;2023-04-16T14:45:07;23.49;44.76
67502;SHT30;54349;52.528;19.760;2023-04-16T14:47:36;23.49;44.79
67502;SHT30;54349;52.528;19.760;2023-04-16T14:50:10;23.50;44.85
67502;SHT30;54349;52.528;19.760;2023-04-16T14:52:40;23.52;44.96
67502;SHT30;54349;52.528;19.760;2023-04-16T14:55:08;23.53;45.05
67502;SHT30;54349;52.528;19.760;2023-04-16T14:57:37;23.54;45.14
67502;SHT30;54349;52.528;19.760;2023-04-16T15:00:08;23.57;45.13
67502;SHT30;54349;52.528;19.760;2023-04-16T15:02:39;23.56;45.06
67502;SHT30;54349;52.528;19.760;2023-04-16T15:05:08;23.59;45.10
67502;SHT30;54349;52.528;19.760;2023-04-16T15:07:37;23.61;45.11
67502;SHT30;54349;52.528;19.760;2023-04-16T15:10:06;23.63;45.17
67502;SHT30;54349;52.528;19.760;2023-04-16T15:12:37;23.64;45.17
67502;SHT30;54349;52.528;19.760;2023-04-16T15:15:07;23.66;45.17
67502;SHT30;54349;52.528;19.760;2023-04-16T15:17:37;23.67;45.22
67502;SHT30;54349;52.528;19.760;2023-04-16T15:20:12;23.69;45.33
67502;SHT30;54349;52.528;19.760;2023-04-16T15:22:45;23.70;45.33
67502;SHT30;54349;52.528;19.760;2023-04-16T15:25:19;23.73;45.30
67502;SHT30;54349;52.528;19.760;2023-04-16T15:27:55;23.74;45.30
67502;SHT30;54349;52.528;19.760;2023-04-16T15:30:29;23.76;45.39
67502;SHT30;54349;52.528;19.760;2023-04-16T15:33:06;23.79;45.45
67502;SHT30;54349;52.528;19.760;2023-04-16T15:35:40;23.79;45.39
67502;SHT30;54349;52.528;19.760;2023-04-16T15:38:12;23.81;45.39
67502;SHT30;54349;52.528;19.760;2023-04-16T15:40:44;23.82;45.33
67502;SHT30;54349;52.528;19.760;2023-04-16T15:43:13;23.84;45.28
67502;SHT30;54349;52.528;19.760;2023-04-16T15:45:43;23.86;45.28
67502;SHT30;54349;52.528;19.760;2023-04-16T15:48:12;23.87;45.23